Terminal Aerodrome Forecast
Issued by NWS Indianapolis, IN

Home | Current Version | Previous Version | Text Only | Print | Product List | Glossary On
Versions: 1 2 3 4 5 6 7 8 9 10 11 12 13 14 15 16 17 18 19 20 21 22 23 24 25 26 27
329
FTUS43 KIND 250520
TAFIND
TAF
KIND 250520Z 2506/2612 28015G21KT P6SM FEW030 SCT090
     FM250700 26014KT P6SM BKN040
     FM251100 26014G22KT P6SM BKN025
     FM251600 27017G26KT P6SM OVC035
     FM260000 28012KT P6SM SCT060
     FM260300 28007KT P6SM SCT100=

USA.gov is the U.S. government's official web portal to all federal, state and local government web resources and services.